• Join FlightAware (Why Join?)
  • Login
  • US Flag 
12:50PM EDT


 

Airport Tracker/Info


-or-


 

Live Flight TrackerFlight Track Log ✈ GGN7283 ✈ 30-Apr-2014 ✈ CYYZ - KSYR

Flight Track Log - Related Links

Times and Time Zones

All times are in EDT time to prevent confusion due to time zone crossing. See the GGN7283 flight status page for this flight to view local times or setup timezone preferences in your user account.

Time Position Orientation Groundspeed Altitude Reporting Facility
EDT Latitude Longitude Course Direction KTS MPH feet Rate Location/Type
09:27PM 43.6667 -79.5833 90° East 120 138 1,300  Level Toronto Center
09:28PM 43.6667 -79.5167 97° East 150 173 3,400 1,800 Climbing Toronto Center
09:29PM 43.6667 -79.4667 90° East 160 184 5,000 720 Climbing Toronto Center
09:30PM 43.6667 -79.3833 90° East 200 230 4,900 120 Descending Toronto Center
09:31PM 43.6500 -79.3167 109° East 210 242 5,300 900 Climbing Toronto Center
09:32PM 43.6167 -79.2333 119° Southeast 200 230 6,800 1,500 Climbing Toronto Center
09:33PM 43.5833 -79.1667 125° Southeast 200 230 8,300 1,320 Climbing Toronto Center
09:34PM 43.5500 -79.1333 144° Southeast 210 242 9,500 1,620 Climbing Toronto Center
09:35PM 43.5167 -79.0500 119° Southeast 210 242 11,600 2,040 Climbing Toronto Center
09:36PM 43.4833 -79.0167 144° Southeast 190 219 13,600 1,800 Climbing Toronto Center
09:37PM 43.4500 -78.9500 125° Southeast 190 219 15,300 1,380 Climbing Toronto Center
09:38PM 43.4333 -78.8500 103° East 230 265 16,400 840 Climbing Toronto Center
09:39PM 43.4333 -78.7667 90° East 240 276 17,000 300 Climbing Toronto Center
09:40PM 43.4167 -78.6667 103° East 270 311 17,000 -60 Level Toronto Center
09:41PM 43.4167 -78.5500 90° East 270 311 16,900  Descending Toronto Center
09:42PM 43.3833 -78.4333 111° Southeast 270 311 17,000  Climbing Toronto Center
09:43PM 43.3667 -78.3500 105° East 270 311 17,000  Level Toronto Center
09:44PM 43.3667 -78.2500 90° East 270 311 17,000 -60 Level Toronto Center
09:45PM 43.3500 -78.1500 103° East 270 311 16,900  Descending Toronto Center
09:46PM 43.3333 -78.0500 103° East 270 311 17,000  Climbing Toronto Center
09:47PM 43.3333 -77.9333 90° East 270 311 16,900  Descending Toronto Center
09:48PM 43.3167 -77.8500 105° East 270 311 17,100 60 Climbing Toronto Center
09:49PM 43.3264 -77.8069 73° East 274 315 17,000 -600 Descending Cleveland Center
09:50PM 43.3111 -77.6986 101° East 285 328 16,200 -900 Descending Cleveland Center
09:51PM 43.2972 -77.5839 99° East 301 346 15,200 -960 Descending Cleveland Center
09:52PM 43.2856 -77.4689 98° East 303 349 14,300 -840 Descending Cleveland Center
09:53PM 43.2700 -77.3589 101° East 296 341 13,500 -1,020 Descending Cleveland Center
09:54PM 43.2575 -77.2519 99° East 289 333 12,300 -1,200 Descending Cleveland Center
09:55PM 43.2456 -77.1447 99° East 287 330 11,100 -660 Descending Cleveland Center
09:56PM 43.2333 -77.0389 99° East 273 314 11,000 -60 Descending Cleveland Center
09:57PM 43.2194 -76.9461 102° East 256 295 11,000  Level Cleveland Center
09:58PM 43.2092 -76.8503 98° East 254 292 11,100 -240 Climbing Cleveland Center
09:58PM 43.1969 -76.8014 109° East 254 292 10,700 -1,440 Descending Boston Center
09:59PM 43.1808 -76.7269 107° East 244 281 9,300 -1,740 Descending Boston Center
09:59PM 43.1767 -76.7147 115° Southeast 246 283 9,000 -1,560 Descending Boston Center
10:00PM 43.1500 -76.6583 123° Southeast 226 260 7,900 -1,500 Descending Boston Center
10:00PM 43.1408 -76.6372 121° Southeast 233 268 7,500 -1,500 Descending Boston Center
10:01PM 43.1175 -76.5864 122° Southeast 217 250 6,400 -1,500 Descending Boston Center
10:01PM 43.1106 -76.5664 115° Southeast 223 257 6,000 -1,380 Descending Boston Center
10:02PM 43.0967 -76.4978 105° East 216 249 4,900 -1,200 Descending Boston Center
10:03PM 43.0953 -76.4883 101° East 218 251 4,800 -1,320 Descending Boston Center
10:03PM 43.0978 -76.4164 87° East 218 251 3,600 -1,380 Descending Boston Center
10:04PM 43.1000 -76.4075 71° East 216 249 3,400 -600 Descending Boston Center
10:04PM 43.1014 -76.3444 88° East 182 209 3,000 -420 Descending Boston Center
10:05PM 43.1011 -76.3222 91° East 199 229 3,000 -120 Level Boston Center
10:05PM 43.1039 -76.2811 85° East 171 197 2,900 -600 Descending Boston Center
10:06PM 43.1047 -76.2603 87° East 182 209 2,400 -1,020 Descending Boston Center
10:06PM 43.1050 -76.2231 89° East 153 176 1,900 -900 Descending Boston Center
10:07PM 43.1056 -76.2019 88° East 166 191 1,500 -840 Descending Boston Center
10:07PM 43.1078 -76.1567 86° East 144 166 1,000 -600 Descending Boston Center
10:08PM 43.1072 -76.1472 95° East 155 178 900 -420 Descending Boston Center
10:09PM 43.1092 -76.0992 87° East 149 171 500 -420 Descending Boston Center